sensor_id;sensor_type;location;lat;lon;timestamp;temperature;humidity
32095;DHT22;18608;53.688;10.748;2022-11-03T00:02:01;6.20;99.90
32095;DHT22;18608;53.688;10.748;2022-11-03T00:04:27;6.30;99.90
32095;DHT22;18608;53.688;10.748;2022-11-03T00:06:54;6.30;99.90
32095;DHT22;18608;53.688;10.748;2022-11-03T00:09:21;6.30;99.90
32095;DHT22;18608;53.688;10.748;2022-11-03T00:11:49;6.20;99.90
32095;DHT22;18608;53.688;10.748;2022-11-03T00:14:15;6.30;99.90
32095;DHT22;18608;53.688;10.748;2022-11-03T00:16:42;6.30;99.90
32095;DHT22;18608;53.688;10.748;2022-11-03T00:19:09;6.30;99.90
32095;DHT22;18608;53.688;10.748;2022-11-03T00:21:35;6.30;99.90
32095;DHT22;18608;53.688;10.748;2022-11-03T00:24:00;6.30;99.90
32095;DHT22;18608;53.688;10.748;2022-11-03T00:26:31;6.30;99.90
32095;DHT22;18608;53.688;10.748;2022-11-03T00:28:59;6.40;99.90
32095;DHT22;18608;53.688;10.748;2022-11-03T00:31:28;6.40;99.90
32095;DHT22;18608;53.688;10.748;2022-11-03T00:33:55;6.30;99.90
32095;DHT22;18608;53.688;10.748;2022-11-03T00:36:25;6.30;99.90
32095;DHT22;18608;53.688;10.748;2022-11-03T00:38:51;6.30;99.90
32095;DHT22;18608;53.688;10.748;2022-11-03T00:41:18;6.30;99.90
32095;DHT22;18608;53.688;10.748;2022-11-03T00:43:47;6.20;99.90
32095;DHT22;18608;53.688;10.748;2022-11-03T00:46:13;6.20;99.90
32095;DHT22;18608;53.688;10.748;2022-11-03T00:48:40;6.10;99.90
32095;DHT22;18608;53.688;10.748;2022-11-03T00:51:10;6.10;99.90
32095;DHT22;18608;53.688;10.748;2022-11-03T00:53:41;6.00;99.90
32095;DHT22;18608;53.688;10.748;2022-11-03T00:56:10;6.10;99.90
32095;DHT22;18608;53.688;10.748;2022-11-03T00:58:36;6.00;99.90
32095;DHT22;18608;53.688;10.748;2022-11-03T01:01:11;6.00;99.90
32095;DHT22;18608;53.688;10.748;2022-11-03T01:03:38;6.10;99.90
32095;DHT22;18608;53.688;10.748;2022-11-03T01:06:10;6.10;99.90
32095;DHT22;18608;53.688;10.748;2022-11-03T01:08:55;6.10;99.90
32095;DHT22;18608;53.688;10.748;2022-11-03T01:11:23;6.10;99.90
32095;DHT22;18608;53.688;10.748;2022-11-03T01:14:10;6.00;99.90
32095;DHT22;18608;53.688;10.748;2022-11-03T01:16:36;6.00;99.90
32095;DHT22;18608;53.688;10.748;2022-11-03T01:19:02;6.00;99.90
32095;DHT22;18608;53.688;10.748;2022-11-03T01:21:27;6.00;99.90
32095;DHT22;18608;53.688;10.748;2022-11-03T01:23:54;6.00;99.90
32095;DHT22;18608;53.688;10.748;2022-11-03T01:26:20;6.00;99.90
32095;DHT22;18608;53.688;10.748;2022-11-03T01:28:46;6.00;99.90
32095;DHT22;18608;53.688;10.748;2022-11-03T01:31:18;6.10;99.90
32095;DHT22;18608;53.688;10.748;2022-11-03T01:33:44;6.10;99.90
32095;DHT22;18608;53.688;10.748;2022-11-03T01:36:11;6.10;99.90
32095;DHT22;18608;53.688;10.748;2022-11-03T01:38:38;6.10;99.90
32095;DHT22;18608;53.688;10.748;2022-11-03T01:41:05;6.00;99.90
32095;DHT22;18608;53.688;10.748;2022-11-03T01:43:32;6.00;99.90
32095;DHT22;18608;53.688;10.748;2022-11-03T01:48:38;6.00;99.90
32095;DHT22;18608;53.688;10.748;2022-11-03T01:51:06;6.10;99.90
32095;DHT22;18608;53.688;10.748;2022-11-03T01:53:33;6.00;99.90
32095;DHT22;18608;53.688;10.748;2022-11-03T01:56:00;6.00;99.90
32095;DHT22;18608;53.688;10.748;2022-11-03T01:58:30;6.00;99.90
32095;DHT22;18608;53.688;10.748;2022-11-03T02:00:58;6.10;99.90
32095;DHT22;18608;53.688;10.748;2022-11-03T02:03:27;6.10;99.90
32095;DHT22;18608;53.688;10.748;2022-11-03T02:05:55;6.00;99.90
32095;DHT22;18608;53.688;10.748;2022-11-03T02:08:30;6.00;99.90
32095;DHT22;18608;53.688;10.748;2022-11-03T02:10:56;6.00;99.90
32095;DHT22;18608;53.688;10.748;2022-11-03T02:13:25;5.90;99.90
32095;DHT22;18608;53.688;10.748;2022-11-03T02:15:56;6.00;99.90
32095;DHT22;18608;53.688;10.748;2022-11-03T02:18:28;6.00;99.90
32095;DHT22;18608;53.688;10.748;2022-11-03T02:21:24;6.00;99.90
32095;DHT22;18608;53.688;10.748;2022-11-03T02:26:47;5.90;99.90
32095;DHT22;18608;53.688;10.748;2022-11-03T02:29:15;5.80;99.90
32095;DHT22;18608;53.688;10.748;2022-11-03T02:31:44;5.80;99.90
32095;DHT22;18608;53.688;10.748;2022-11-03T02:37:09;5.80;99.90
32095;DHT22;18608;53.688;10.748;2022-11-03T02:39:40;5.90;99.90
32095;DHT22;18608;53.688;10.748;2022-11-03T02:42:10;5.90;99.90
32095;DHT22;18608;53.688;10.748;2022-11-03T02:44:37;5.80;99.90
32095;DHT22;18608;53.688;10.748;2022-11-03T02:47:07;5.80;99.90
32095;DHT22;18608;53.688;10.748;2022-11-03T02:49:44;5.80;99.90
32095;DHT22;18608;53.688;10.748;2022-11-03T02:52:39;5.80;99.90
32095;DHT22;18608;53.688;10.748;2022-11-03T02:57:52;5.80;99.90
32095;DHT22;18608;53.688;10.748;2022-11-03T03:00:20;5.80;99.90
32095;DHT22;18608;53.688;10.748;2022-11-03T03:03:05;5.70;99.90
32095;DHT22;18608;53.688;10.748;2022-11-03T03:05:33;5.70;99.90
32095;DHT22;18608;53.688;10.748;2022-11-03T03:08:04;5.80;99.90
32095;DHT22;18608;53.688;10.748;2022-11-03T03:10:38;5.70;99.90
32095;DHT22;18608;53.688;10.748;2022-11-03T03:13:06;5.70;99.90
32095;DHT22;18608;53.688;10.748;2022-11-03T03:21:14;5.70;99.90
32095;DHT22;18608;53.688;10.748;2022-11-03T03:23:48;5.80;99.90
32095;DHT22;18608;53.688;10.748;2022-11-03T03:26:36;5.80;99.90
32095;DHT22;18608;53.688;10.748;2022-11-03T03:29:14;5.80;99.90
32095;DHT22;18608;53.688;10.748;2022-11-03T03:31:46;5.80;99.90
32095;DHT22;18608;53.688;10.748;2022-11-03T03:34:15;5.80;99.90
32095;DHT22;18608;53.688;10.748;2022-11-03T03:36:43;5.90;99.90
32095;DHT22;18608;53.688;10.748;2022-11-03T03:39:12;5.90;99.90
32095;DHT22;18608;53.688;10.748;2022-11-03T03:41:39;5.90;99.90
32095;DHT22;18608;53.688;10.748;2022-11-03T03:44:07;6.00;99.90
32095;DHT22;18608;53.688;10.748;2022-11-03T03:46:56;6.00;99.90
32095;DHT22;18608;53.688;10.748;2022-11-03T03:49:23;6.00;99.90
32095;DHT22;18608;53.688;10.748;2022-11-03T03:51:49;6.00;99.90
32095;DHT22;18608;53.688;10.748;2022-11-03T03:54:15;6.10;99.90
32095;DHT22;18608;53.688;10.748;2022-11-03T03:56:59;6.10;99.90
32095;DHT22;18608;53.688;10.748;2022-11-03T03:59:26;6.10;99.90
32095;DHT22;18608;53.688;10.748;2022-11-03T04:01:52;6.20;99.90
32095;DHT22;18608;53.688;10.748;2022-11-03T04:04:18;6.20;99.90
32095;DHT22;18608;53.688;10.748;2022-11-03T04:06:43;6.20;99.90
32095;DHT22;18608;53.688;10.748;2022-11-03T04:09:09;6.20;99.90
32095;DHT22;18608;53.688;10.748;2022-11-03T04:11:35;6.20;99.90
32095;DHT22;18608;53.688;10.748;2022-11-03T04:14:19;6.20;99.90
32095;DHT22;18608;53.688;10.748;2022-11-03T04:17:03;6.20;99.90
32095;DHT22;18608;53.688;10.748;2022-11-03T04:19:47;6.20;99.90
32095;DHT22;18608;53.688;10.748;2022-11-03T04:22:32;6.20;99.90
32095;DHT22;18608;53.688;10.748;2022-11-03T04:24:58;6.20;99.90
32095;DHT22;18608;53.688;10.748;2022-11-03T04:30:06;6.20;99.90
32095;DHT22;18608;53.688;10.748;2022-11-03T04:32:35;6.20;99.90
32095;DHT22;18608;53.688;10.748;2022-11-03T04:35:01;6.20;99.90
32095;DHT22;18608;53.688;10.748;2022-11-03T04:37:31;6.20;99.90
32095;DHT22;18608;53.688;10.748;2022-11-03T04:40:00;6.30;99.90
32095;DHT22;18608;53.688;10.748;2022-11-03T04:42:28;6.30;99.90
32095;DHT22;18608;53.688;10.748;2022-11-03T04:44:55;6.30;99.90
32095;DHT22;18608;53.688;10.748;2022-11-03T04:47:24;6.30;99.90
32095;DHT22;18608;53.688;10.748;2022-11-03T04:49:50;6.30;99.90
32095;DHT22;18608;53.688;10.748;2022-11-03T04:52:20;6.30;99.90
32095;DHT22;18608;53.688;10.748;2022-11-03T04:54:48;6.30;99.90
32095;DHT22;18608;53.688;10.748;2022-11-03T04:57:16;6.30;99.90
32095;DHT22;18608;53.688;10.748;2022-11-03T04:59:47;6.30;99.90
32095;DHT22;18608;53.688;10.748;2022-11-03T05:02:17;6.20;99.90
32095;DHT22;18608;53.688;10.748;2022-11-03T05:04:43;6.30;99.90
32095;DHT22;18608;53.688;10.748;2022-11-03T05:07:30;6.30;99.90
32095;DHT22;18608;53.688;10.748;2022-11-03T05:09:57;6.30;99.90
32095;DHT22;18608;53.688;10.748;2022-11-03T05:12:23;6.30;99.90
32095;DHT22;18608;53.688;10.748;2022-11-03T05:14:49;6.40;99.90
32095;DHT22;18608;53.688;10.748;2022-11-03T05:17:24;6.40;99.90
32095;DHT22;18608;53.688;10.748;2022-11-03T05:20:00;6.40;99.90
32095;DHT22;18608;53.688;10.748;2022-11-03T05:22:34;6.40;99.90
32095;DHT22;18608;53.688;10.748;2022-11-03T05:25:19;6.50;99.90
32095;DHT22;18608;53.688;10.748;2022-11-03T05:27:48;6.40;99.90
32095;DHT22;18608;53.688;10.748;2022-11-03T05:30:14;6.40;99.90
32095;DHT22;18608;53.688;10.748;2022-11-03T05:32:40;6.40;99.90
32095;DHT22;18608;53.688;10.748;2022-11-03T05:35:19;6.30;99.90
32095;DHT22;18608;53.688;10.748;2022-11-03T05:37:45;6.30;99.90
32095;DHT22;18608;53.688;10.748;2022-11-03T05:40:25;6.40;99.90
32095;DHT22;18608;53.688;10.748;2022-11-03T05:42:53;6.30;99.90
32095;DHT22;18608;53.688;10.748;2022-11-03T05:45:30;6.30;99.90
32095;DHT22;18608;53.688;10.748;2022-11-03T05:47:56;6.30;99.90
32095;DHT22;18608;53.688;10.748;2022-11-03T05:50:31;6.30;99.90
32095;DHT22;18608;53.688;10.748;2022-11-03T05:53:25;6.30;99.90
32095;DHT22;18608;53.688;10.748;2022-11-03T05:55:52;6.20;99.90
32095;DHT22;18608;53.688;10.748;2022-11-03T06:00:52;6.10;99.90
32095;DHT22;18608;53.688;10.748;2022-11-03T06:03:23;6.00;99.90
32095;DHT22;18608;53.688;10.748;2022-11-03T06:05:49;6.00;99.90
32095;DHT22;18608;53.688;10.748;2022-11-03T06:08:29;6.00;99.90
32095;DHT22;18608;53.688;10.748;2022-11-03T06:10:57;6.00;99.90
32095;DHT22;18608;53.688;10.748;2022-11-03T06:13:37;6.00;99.90
32095;DHT22;18608;53.688;10.748;2022-11-03T06:16:05;6.00;99.90
32095;DHT22;18608;53.688;10.748;2022-11-03T06:18:40;6.00;99.90
32095;DHT22;18608;53.688;10.748;2022-11-03T06:21:10;5.90;99.90
32095;DHT22;18608;53.688;10.748;2022-11-03T06:23:38;5.90;99.90
32095;DHT22;18608;53.688;10.748;2022-11-03T06:26:15;5.80;99.90
32095;DHT22;18608;53.688;10.748;2022-11-03T06:28:42;5.80;99.90
32095;DHT22;18608;53.688;10.748;2022-11-03T06:31:17;5.80;99.90
32095;DHT22;18608;53.688;10.748;2022-11-03T06:33:44;5.70;99.90
32095;DHT22;18608;53.688;10.748;2022-11-03T06:38:40;5.80;99.90
32095;DHT22;18608;53.688;10.748;2022-11-03T06:41:13;5.80;99.90
32095;DHT22;18608;53.688;10.748;2022-11-03T06:43:42;5.80;99.90
32095;DHT22;18608;53.688;10.748;2022-11-03T06:48:48;5.90;99.90
32095;DHT22;18608;53.688;10.748;2022-11-03T06:51:25;5.90;99.90
32095;DHT22;18608;53.688;10.748;2022-11-03T06:53:53;5.90;99.90
32095;DHT22;18608;53.688;10.748;2022-11-03T06:56:22;6.00;99.90
32095;DHT22;18608;53.688;10.748;2022-11-03T06:58:51;6.00;99.90
32095;DHT22;18608;53.688;10.748;2022-11-03T07:01:30;6.10;99.90
32095;DHT22;18608;53.688;10.748;2022-11-03T07:04:17;6.20;99.90
32095;DHT22;18608;53.688;10.748;2022-11-03T07:06:44;6.20;99.90
32095;DHT22;18608;53.688;10.748;2022-11-03T07:09:20;6.20;99.90
32095;DHT22;18608;53.688;10.748;2022-11-03T07:11:51;6.30;99.90
32095;DHT22;18608;53.688;10.748;2022-11-03T07:14:20;6.30;99.90
32095;DHT22;18608;53.688;10.748;2022-11-03T07:19:29;6.50;99.90
32095;DHT22;18608;53.688;10.748;2022-11-03T07:22:00;6.60;99.90
32095;DHT22;18608;53.688;10.748;2022-11-03T07:24:35;6.60;99.90
32095;DHT22;18608;53.688;10.748;2022-11-03T07:27:25;6.70;99.90
32095;DHT22;18608;53.688;10.748;2022-11-03T07:29:56;6.70;99.90
32095;DHT22;18608;53.688;10.748;2022-11-03T07:32:25;6.80;99.90
32095;DHT22;18608;53.688;10.748;2022-11-03T07:35:14;6.90;99.90
32095;DHT22;18608;53.688;10.748;2022-11-03T07:37:46;7.00;99.90
32095;DHT22;18608;53.688;10.748;2022-11-03T07:40:15;7.10;99.90
32095;DHT22;18608;53.688;10.748;2022-11-03T07:42:42;7.20;99.90
32095;DHT22;18608;53.688;10.748;2022-11-03T07:45:32;7.30;99.90
32095;DHT22;18608;53.688;10.748;2022-11-03T07:48:17;7.40;99.90
32095;DHT22;18608;53.688;10.748;2022-11-03T07:50:44;7.50;99.90
32095;DHT22;18608;53.688;10.748;2022-11-03T07:53:38;7.60;99.90
32095;DHT22;18608;53.688;10.748;2022-11-03T07:56:13;7.80;99.90
32095;DHT22;18608;53.688;10.748;2022-11-03T07:58:40;7.80;99.90
32095;DHT22;18608;53.688;10.748;2022-11-03T08:01:23;7.90;99.90
32095;DHT22;18608;53.688;10.748;2022-11-03T08:03:50;8.00;99.90
32095;DHT22;18608;53.688;10.748;2022-11-03T08:06:15;8.20;99.90
32095;DHT22;18608;53.688;10.748;2022-11-03T08:08:41;8.20;99.90
32095;DHT22;18608;53.688;10.748;2022-11-03T08:11:07;8.20;99.90
32095;DHT22;18608;53.688;10.748;2022-11-03T08:13:33;8.20;99.90
32095;DHT22;18608;53.688;10.748;2022-11-03T08:15:58;8.30;99.90
32095;DHT22;18608;53.688;10.748;2022-11-03T08:18:24;8.40;99.90
32095;DHT22;18608;53.688;10.748;2022-11-03T08:20:50;8.50;99.90
32095;DHT22;18608;53.688;10.748;2022-11-03T08:23:16;8.60;99.90
32095;DHT22;18608;53.688;10.748;2022-11-03T08:25:42;8.70;99.90
32095;DHT22;18608;53.688;10.748;2022-11-03T08:28:08;8.80;99.90
32095;DHT22;18608;53.688;10.748;2022-11-03T08:30:33;8.80;99.90
32095;DHT22;18608;53.688;10.748;2022-11-03T08:32:59;8.90;99.90
32095;DHT22;18608;53.688;10.748;2022-11-03T08:35:25;9.00;99.90
32095;DHT22;18608;53.688;10.748;2022-11-03T08:37:51;9.10;99.90
32095;DHT22;18608;53.688;10.748;2022-11-03T08:40:17;9.20;99.90
32095;DHT22;18608;53.688;10.748;2022-11-03T08:42:43;9.30;99.90
32095;DHT22;18608;53.688;10.748;2022-11-03T08:45:09;9.40;99.90
32095;DHT22;18608;53.688;10.748;2022-11-03T08:47:36;9.50;99.90
32095;DHT22;18608;53.688;10.748;2022-11-03T08:52:27;9.50;99.90
32095;DHT22;18608;53.688;10.748;2022-11-03T08:54:53;9.60;99.90
32095;DHT22;18608;53.688;10.748;2022-11-03T08:57:18;9.60;99.90
32095;DHT22;18608;53.688;10.748;2022-11-03T08:59:44;9.60;99.90
32095;DHT22;18608;53.688;10.748;2022-11-03T09:02:10;9.60;99.90
32095;DHT22;18608;53.688;10.748;2022-11-03T09:04:35;9.60;99.90
32095;DHT22;18608;53.688;10.748;2022-11-03T09:07:01;9.60;99.90
32095;DHT22;18608;53.688;10.748;2022-11-03T09:09:26;9.70;99.90
32095;DHT22;18608;53.688;10.748;2022-11-03T09:11:52;9.80;99.90
32095;DHT22;18608;53.688;10.748;2022-11-03T09:14:17;9.80;99.90
32095;DHT22;18608;53.688;10.748;2022-11-03T09:16:43;9.80;99.90
32095;DHT22;18608;53.688;10.748;2022-11-03T09:19:09;9.80;99.90
32095;DHT22;18608;53.688;10.748;2022-11-03T09:21:35;9.90;99.90
32095;DHT22;18608;53.688;10.748;2022-11-03T09:24:00;10.00;99.90
32095;DHT22;18608;53.688;10.748;2022-11-03T09:26:26;10.00;99.90
32095;DHT22;18608;53.688;10.748;2022-11-03T09:28:52;10.00;99.90
32095;DHT22;18608;53.688;10.748;2022-11-03T09:31:19;10.10;99.90
32095;DHT22;18608;53.688;10.748;2022-11-03T09:33:45;10.10;99.90
32095;DHT22;18608;53.688;10.748;2022-11-03T09:36:10;10.20;99.90
32095;DHT22;18608;53.688;10.748;2022-11-03T09:38:36;10.20;99.90
32095;DHT22;18608;53.688;10.748;2022-11-03T09:41:03;10.30;99.90
32095;DHT22;18608;53.688;10.748;2022-11-03T09:43:30;10.40;99.90
32095;DHT22;18608;53.688;10.748;2022-11-03T09:45:57;10.40;99.90
32095;DHT22;18608;53.688;10.748;2022-11-03T09:48:23;10.50;99.90
32095;DHT22;18608;53.688;10.748;2022-11-03T09:50:52;10.50;99.90
32095;DHT22;18608;53.688;10.748;2022-11-03T09:53:20;10.50;99.90
32095;DHT22;18608;53.688;10.748;2022-11-03T09:55:46;10.60;99.90
32095;DHT22;18608;53.688;10.748;2022-11-03T09:58:16;10.70;99.90
32095;DHT22;18608;53.688;10.748;2022-11-03T10:00:42;10.80;99.90
32095;DHT22;18608;53.688;10.748;2022-11-03T10:03:12;10.80;99.90
32095;DHT22;18608;53.688;10.748;2022-11-03T10:05:41;10.90;99.90
32095;DHT22;18608;53.688;10.748;2022-11-03T10:08:34;10.90;99.90
32095;DHT22;18608;53.688;10.748;2022-11-03T10:10:59;11.00;99.90
32095;DHT22;18608;53.688;10.748;2022-11-03T10:13:32;11.20;99.90
32095;DHT22;18608;53.688;10.748;2022-11-03T10:16:00;11.20;99.90
32095;DHT22;18608;53.688;10.748;2022-11-03T10:18:27;11.20;99.90
32095;DHT22;18608;53.688;10.748;2022-11-03T10:20:54;11.30;99.90
32095;DHT22;18608;53.688;10.748;2022-11-03T10:23:19;11.30;99.90
32095;DHT22;18608;53.688;10.748;2022-11-03T10:25:45;11.30;99.90
32095;DHT22;18608;53.688;10.748;2022-11-03T10:28:19;11.40;99.90
32095;DHT22;18608;53.688;10.748;2022-11-03T10:33:33;11.60;99.90
32095;DHT22;18608;53.688;10.748;2022-11-03T10:36:01;11.60;99.90
32095;DHT22;18608;53.688;10.748;2022-11-03T10:38:34;11.80;99.90
32095;DHT22;18608;53.688;10.748;2022-11-03T10:43:41;12.40;99.90
32095;DHT22;18608;53.688;10.748;2022-11-03T10:46:15;12.70;99.90
32095;DHT22;18608;53.688;10.748;2022-11-03T10:48:42;12.70;99.90
32095;DHT22;18608;53.688;10.748;2022-11-03T10:51:11;12.70;99.90
32095;DHT22;18608;53.688;10.748;2022-11-03T10:53:37;12.80;99.90
32095;DHT22;18608;53.688;10.748;2022-11-03T10:56:03;12.80;99.90
32095;DHT22;18608;53.688;10.748;2022-11-03T10:58:29;13.30;99.90
32095;DHT22;18608;53.688;10.748;2022-11-03T11:00:55;13.40;99.90
32095;DHT22;18608;53.688;10.748;2022-11-03T11:05:47;13.40;99.90
32095;DHT22;18608;53.688;10.748;2022-11-03T11:08:21;13.40;99.90
32095;DHT22;18608;53.688;10.748;2022-11-03T11:10:47;13.10;99.90
32095;DHT22;18608;53.688;10.748;2022-11-03T11:15:58;13.00;99.90
32095;DHT22;18608;53.688;10.748;2022-11-03T11:20:59;13.20;99.90
32095;DHT22;18608;53.688;10.748;2022-11-03T11:42:20;13.40;99.90
32095;DHT22;18608;53.688;10.748;2022-11-03T11:44:56;13.40;99.90
32095;DHT22;18608;53.688;10.748;2022-11-03T11:47:54;13.10;99.90
32095;DHT22;18608;53.688;10.748;2022-11-03T11:50:24;13.00;99.90
32095;DHT22;18608;53.688;10.748;2022-11-03T11:58:01;12.50;99.90
32095;DHT22;18608;53.688;10.748;2022-11-03T12:00:31;12.50;99.90
32095;DHT22;18608;53.688;10.748;2022-11-03T12:02:58;12.50;99.90
32095;DHT22;18608;53.688;10.748;2022-11-03T12:05:34;12.60;99.90
32095;DHT22;18608;53.688;10.748;2022-11-03T12:08:00;12.70;99.90
32095;DHT22;18608;53.688;10.748;2022-11-03T12:10:29;12.80;99.90
32095;DHT22;18608;53.688;10.748;2022-11-03T12:12:57;12.80;99.90
32095;DHT22;18608;53.688;10.748;2022-11-03T12:15:55;12.90;99.90
32095;DHT22;18608;53.688;10.748;2022-11-03T12:18:41;13.00;99.90
32095;DHT22;18608;53.688;10.748;2022-11-03T12:21:12;13.00;99.90
32095;DHT22;18608;53.688;10.748;2022-11-03T12:23:46;12.80;99.90
32095;DHT22;18608;53.688;10.748;2022-11-03T12:26:18;12.70;99.90
32095;DHT22;18608;53.688;10.748;2022-11-03T12:29:04;12.80;99.90
32095;DHT22;18608;53.688;10.748;2022-11-03T12:31:30;12.70;99.90
32095;DHT22;18608;53.688;10.748;2022-11-03T12:33:56;12.70;99.90
32095;DHT22;18608;53.688;10.748;2022-11-03T12:36:21;12.70;99.90
32095;DHT22;18608;53.688;10.748;2022-11-03T12:38:47;12.70;99.90
32095;DHT22;18608;53.688;10.748;2022-11-03T12:41:12;12.80;99.90
32095;DHT22;18608;53.688;10.748;2022-11-03T12:43:50;12.70;99.90
32095;DHT22;18608;53.688;10.748;2022-11-03T12:46:16;12.70;99.90
32095;DHT22;18608;53.688;10.748;2022-11-03T12:48:42;12.70;99.90
32095;DHT22;18608;53.688;10.748;2022-11-03T12:51:26;12.60;99.90
32095;DHT22;18608;53.688;10.748;2022-11-03T12:53:52;12.60;99.90
32095;DHT22;18608;53.688;10.748;2022-11-03T12:56:20;12.50;99.90
32095;DHT22;18608;53.688;10.748;2022-11-03T12:58:46;12.60;99.90
32095;DHT22;18608;53.688;10.748;2022-11-03T13:01:11;12.50;99.90
32095;DHT22;18608;53.688;10.748;2022-11-03T13:03:37;12.50;99.90
32095;DHT22;18608;53.688;10.748;2022-11-03T13:06:04;12.50;99.90
32095;DHT22;18608;53.688;10.748;2022-11-03T13:08:34;12.40;99.90
32095;DHT22;18608;53.688;10.748;2022-11-03T13:11:00;12.30;99.90
32095;DHT22;18608;53.688;10.748;2022-11-03T13:13:26;12.20;99.90
32095;DHT22;18608;53.688;10.748;2022-11-03T13:15:52;12.20;99.90
32095;DHT22;18608;53.688;10.748;2022-11-03T13:18:18;12.20;99.90
32095;DHT22;18608;53.688;10.748;2022-11-03T13:20:44;12.20;99.90
32095;DHT22;18608;53.688;10.748;2022-11-03T13:23:10;12.10;99.90
32095;DHT22;18608;53.688;10.748;2022-11-03T13:25:35;12.00;99.90
32095;DHT22;18608;53.688;10.748;2022-11-03T13:28:01;12.00;99.90
32095;DHT22;18608;53.688;10.748;2022-11-03T13:30:29;12.10;99.90
32095;DHT22;18608;53.688;10.748;2022-11-03T13:32:55;12.10;99.90
32095;DHT22;18608;53.688;10.748;2022-11-03T13:35:21;12.10;99.90
32095;DHT22;18608;53.688;10.748;2022-11-03T13:37:47;12.00;99.90
32095;DHT22;18608;53.688;10.748;2022-11-03T13:40:13;12.00;99.90
32095;DHT22;18608;53.688;10.748;2022-11-03T13:42:39;12.00;99.90
32095;DHT22;18608;53.688;10.748;2022-11-03T13:45:06;12.00;99.90
32095;DHT22;18608;53.688;10.748;2022-11-03T13:47:32;12.00;99.90
32095;DHT22;18608;53.688;10.748;2022-11-03T13:49:58;12.00;99.90
32095;DHT22;18608;53.688;10.748;2022-11-03T13:52:28;12.00;99.90
32095;DHT22;18608;53.688;10.748;2022-11-03T13:54:54;12.00;99.90
32095;DHT22;18608;53.688;10.748;2022-11-03T13:57:19;12.00;99.90
32095;DHT22;18608;53.688;10.748;2022-11-03T13:59:45;12.00;99.90
32095;DHT22;18608;53.688;10.748;2022-11-03T14:02:11;12.00;99.90
32095;DHT22;18608;53.688;10.748;2022-11-03T14:04:37;12.00;99.90
32095;DHT22;18608;53.688;10.748;2022-11-03T14:07:04;12.00;99.90
32095;DHT22;18608;53.688;10.748;2022-11-03T14:09:30;12.00;99.90
32095;DHT22;18608;53.688;10.748;2022-11-03T14:11:56;12.00;99.90
32095;DHT22;18608;53.688;10.748;2022-11-03T14:14:40;12.00;99.90
32095;DHT22;18608;53.688;10.748;2022-11-03T14:17:05;11.90;99.90
32095;DHT22;18608;53.688;10.748;2022-11-03T14:19:31;11.90;99.90
32095;DHT22;18608;53.688;10.748;2022-11-03T14:21:57;11.90;99.90
32095;DHT22;18608;53.688;10.748;2022-11-03T14:24:22;11.80;99.90
32095;DHT22;18608;53.688;10.748;2022-11-03T14:26:48;11.90;99.90
32095;DHT22;18608;53.688;10.748;2022-11-03T14:29:14;11.80;99.90
32095;DHT22;18608;53.688;10.748;2022-11-03T14:31:39;11.70;99.90
32095;DHT22;18608;53.688;10.748;2022-11-03T14:34:05;11.70;99.90
32095;DHT22;18608;53.688;10.748;2022-11-03T14:36:30;11.70;99.90
32095;DHT22;18608;53.688;10.748;2022-11-03T14:38:56;11.70;99.90
32095;DHT22;18608;53.688;10.748;2022-11-03T14:41:22;11.60;99.90
32095;DHT22;18608;53.688;10.748;2022-11-03T14:44:06;11.50;99.90
32095;DHT22;18608;53.688;10.748;2022-11-03T14:46:32;11.50;99.90
32095;DHT22;18608;53.688;10.748;2022-11-03T14:48:57;11.50;99.90
32095;DHT22;18608;53.688;10.748;2022-11-03T14:51:25;11.50;99.90
32095;DHT22;18608;53.688;10.748;2022-11-03T14:53:50;11.40;99.90
32095;DHT22;18608;53.688;10.748;2022-11-03T14:56:16;11.40;99.90
32095;DHT22;18608;53.688;10.748;2022-11-03T14:58:42;11.40;99.90
32095;DHT22;18608;53.688;10.748;2022-11-03T15:01:08;11.30;99.90
32095;DHT22;18608;53.688;10.748;2022-11-03T15:03:34;11.30;99.90
32095;DHT22;18608;53.688;10.748;2022-11-03T15:06:00;11.30;99.90
32095;DHT22;18608;53.688;10.748;2022-11-03T15:08:25;11.20;99.90
32095;DHT22;18608;53.688;10.748;2022-11-03T15:10:53;11.30;99.90
32095;DHT22;18608;53.688;10.748;2022-11-03T15:13:19;11.30;99.90
32095;DHT22;18608;53.688;10.748;2022-11-03T15:15:45;11.20;99.90
32095;DHT22;18608;53.688;10.748;2022-11-03T15:18:10;11.20;99.90
32095;DHT22;18608;53.688;10.748;2022-11-03T15:20:36;11.20;99.90
32095;DHT22;18608;53.688;10.748;2022-11-03T15:23:03;11.10;99.90
32095;DHT22;18608;53.688;10.748;2022-11-03T15:25:29;11.10;99.90
32095;DHT22;18608;53.688;10.748;2022-11-03T15:27:55;11.10;99.90
32095;DHT22;18608;53.688;10.748;2022-11-03T15:30:21;11.10;99.90
32095;DHT22;18608;53.688;10.748;2022-11-03T15:32:46;11.00;99.90
32095;DHT22;18608;53.688;10.748;2022-11-03T15:35:12;11.10;99.90
32095;DHT22;18608;53.688;10.748;2022-11-03T15:37:38;11.00;99.90
32095;DHT22;18608;53.688;10.748;2022-11-03T15:40:05;11.00;99.90
32095;DHT22;18608;53.688;10.748;2022-11-03T15:42:30;11.00;99.90
32095;DHT22;18608;53.688;10.748;2022-11-03T15:44:56;10.90;99.90
32095;DHT22;18608;53.688;10.748;2022-11-03T15:47:22;10.90;99.90
32095;DHT22;18608;53.688;10.748;2022-11-03T15:49:47;10.90;99.90
32095;DHT22;18608;53.688;10.748;2022-11-03T15:52:13;10.90;99.90
32095;DHT22;18608;53.688;10.748;2022-11-03T15:54:39;10.90;99.90
32095;DHT22;18608;53.688;10.748;2022-11-03T15:57:05;10.80;99.90
32095;DHT22;18608;53.688;10.748;2022-11-03T15:59:31;10.80;99.90
32095;DHT22;18608;53.688;10.748;2022-11-03T16:01:56;10.90;99.90
32095;DHT22;18608;53.688;10.748;2022-11-03T16:04:22;10.80;99.90
32095;DHT22;18608;53.688;10.748;2022-11-03T16:06:48;10.80;99.90
32095;DHT22;18608;53.688;10.748;2022-11-03T16:09:14;10.70;99.90
32095;DHT22;18608;53.688;10.748;2022-11-03T16:11:39;10.70;99.90
32095;DHT22;18608;53.688;10.748;2022-11-03T16:14:05;10.70;99.90
32095;DHT22;18608;53.688;10.748;2022-11-03T16:16:31;10.70;99.90
32095;DHT22;18608;53.688;10.748;2022-11-03T16:18:56;10.70;99.90
32095;DHT22;18608;53.688;10.748;2022-11-03T16:21:22;10.70;99.90
32095;DHT22;18608;53.688;10.748;2022-11-03T16:23:47;10.70;99.90
32095;DHT22;18608;53.688;10.748;2022-11-03T16:26:13;10.60;99.90
32095;DHT22;18608;53.688;10.748;2022-11-03T16:28:39;10.60;99.90
32095;DHT22;18608;53.688;10.748;2022-11-03T16:31:04;10.60;99.90
32095;DHT22;18608;53.688;10.748;2022-11-03T16:33:30;10.60;99.90
32095;DHT22;18608;53.688;10.748;2022-11-03T16:35:56;10.60;99.90
32095;DHT22;18608;53.688;10.748;2022-11-03T16:38:21;10.60;99.90
32095;DHT22;18608;53.688;10.748;2022-11-03T16:40:47;10.60;99.90
32095;DHT22;18608;53.688;10.748;2022-11-03T16:43:12;10.60;99.90
32095;DHT22;18608;53.688;10.748;2022-11-03T16:45:38;10.60;99.90
32095;DHT22;18608;53.688;10.748;2022-11-03T16:48:04;10.60;99.90